Time;durP1;ratioP1;P1;durP2;ratioP2;P2;SDS_P1;SDS_P2;PMS_P1;PMS_P2;Temp;Humidity;BMP_temperature;BMP_pressure;BME280_temperature;BME280_humidity;BME280_pressure;Samples;Min_cycle;Max_cycle;Signal;HPM_P1;HPM_P2
2021/08/30 00:01:41;;;;;;;10.77;9.13;;;;;;;15.67;68.44;100896.44;5051063;28;20259;-62
2021/08/30 00:04:07;;;;;;;11.33;10.17;;;;;;;16.42;68.43;101018.78;5049877;28;20645;-62
2021/08/30 00:06:32;;;;;;;11.87;9.87;;;;;;;16.24;69.22;101027.06;5050146;28;20275;-63
2021/08/30 00:08:58;;;;;;;11.07;9.80;;;;;;;16.01;69.74;101002.47;5042529;28;20202;-62
2021/08/30 00:11:23;;;;;;;10.63;9.63;;;;;;;16.08;69.75;101018.19;5050607;28;20188;-62
2021/08/30 00:13:49;;;;;;;11.47;10.33;;;;;;;16.07;70.41;101020.19;5049717;28;20567;-62
2021/08/30 00:16:14;;;;;;;11.97;10.77;;;;;;;16.14;69.87;101022.69;5050119;28;20611;-62
2021/08/30 00:18:40;;;;;;;11.87;10.53;;;;;;;16.14;69.84;101027.50;5050046;28;20180;-62
2021/08/30 00:21:05;;;;;;;11.17;10.00;;;;;;;16.26;69.73;101037.78;5045247;28;20199;-62
2021/08/30 00:23:31;;;;;;;10.40;9.40;;;;;;;15.72;69.64;100948.16;5050117;28;20180;-62
2021/08/30 00:25:57;;;;;;;10.83;9.73;;;;;;;15.85;69.38;100954.41;5048649;28;20669;-62
2021/08/30 00:28:22;;;;;;;10.97;9.87;;;;;;;16.19;69.11;100998.94;5049937;28;20225;-61
2021/08/30 00:30:48;;;;;;;11.40;10.20;;;;;;;16.19;68.80;100984.97;5050103;28;20180;-62
2021/08/30 00:33:13;;;;;;;11.23;9.90;;;;;;;16.63;68.53;101031.88;5042006;28;20191;-63
2021/08/30 00:35:39;;;;;;;11.00;9.90;;;;;;;16.47;68.15;100994.22;5065354;28;20176;-63
2021/08/30 00:38:05;;;;;;;11.03;9.93;;;;;;;16.85;68.00;101040.16;5049678;28;20258;-62
2021/08/30 00:40:31;;;;;;;12.27;10.47;;;;;;;16.93;67.74;101050.56;5050248;28;20185;-62
2021/08/30 00:42:58;;;;;;;11.63;10.00;;;;;;;16.88;67.23;101027.25;5049846;28;20179;-62
2021/08/30 00:45:23;;;;;;;10.67;9.60;;;;;;;16.93;67.40;101027.38;5049537;28;20600;-62
2021/08/30 00:47:52;;;;;;;11.30;10.20;;;;;;;16.91;66.93;101010.28;5049554;28;20193;-62
2021/08/30 00:50:18;;;;;;;11.47;10.27;;;;;;;17.11;66.75;101033.75;5049982;28;20200;-62
2021/08/30 00:52:44;;;;;;;11.73;10.53;;;;;;;17.07;66.86;101032.38;5050067;28;20266;-62
2021/08/30 00:55:10;;;;;;;11.17;10.07;;;;;;;17.00;66.47;101013.09;5049612;28;20736;-62
2021/08/30 00:57:36;;;;;;;11.23;10.13;;;;;;;17.29;65.92;101032.97;5064113;28;20694;-62
2021/08/30 01:00:04;;;;;;;12.00;10.33;;;;;;;17.39;65.53;101036.59;5069705;28;20179;-62
2021/08/30 01:02:29;;;;;;;11.23;10.13;;;;;;;17.17;65.36;100978.69;5069946;28;20179;-62
2021/08/30 01:04:55;;;;;;;13.83;10.40;;;;;;;17.43;64.99;101015.56;5069334;28;20208;-62
2021/08/30 01:07:59;;;;;;;11.13;10.03;;;;;;;17.44;65.16;101025.53;5069954;28;20232;-63
2021/08/30 01:10:34;;;;;;;11.83;10.60;;;;;;;17.36;65.20;101024.28;5029287;28;20317;-62
2021/08/30 01:13:04;;;;;;;11.50;10.40;;;;;;;17.38;65.08;101018.97;5029597;28;20599;-62
2021/08/30 01:15:36;;;;;;;11.40;10.37;;;;;;;17.37;65.02;101014.63;5029480;28;20184;-61
2021/08/30 01:18:03;;;;;;;11.43;10.33;;;;;;;17.39;64.99;101017.75;5046627;28;20240;-62
2021/08/30 01:20:47;;;;;;;11.97;10.77;;;;;;;17.28;64.61;101012.59;5061805;28;20276;-62
2021/08/30 01:23:15;;;;;;;12.67;11.37;;;;;;;17.19;65.28;101015.41;5049575;28;20189;-62
2021/08/30 01:25:40;;;;;;;12.00;10.80;;;;;;;16.93;65.23;100988.97;5049621;28;20180;-61
2021/08/30 01:28:07;;;;;;;11.90;10.80;;;;;;;16.89;66.24;101024.75;5050508;28;20662;-62
2021/08/30 01:30:36;;;;;;;11.63;10.50;;;;;;;16.79;66.37;101025.97;5052986;28;20208;-62
2021/08/30 01:33:02;;;;;;;11.93;10.67;;;;;;;16.52;66.53;100988.03;5052965;28;20191;-62
2021/08/30 01:35:31;;;;;;;12.33;10.93;;;;;;;16.70;66.18;101028.75;5053124;28;20192;-62
2021/08/30 01:38:00;;;;;;;12.27;11.00;;;;;;;16.71;66.62;101021.91;5053276;28;20177;-62
2021/08/30 01:40:27;;;;;;;13.37;10.93;;;;;;;16.35;66.33;100979.84;5052939;28;20207;-63
2021/08/30 01:42:56;;;;;;;12.93;11.63;;;;;;;16.55;66.98;101013.06;5068186;28;20216;-61
2021/08/30 01:45:25;;;;;;;12.73;11.43;;;;;;;16.10;66.96;100956.97;5049976;28;20205;-62
2021/08/30 01:47:52;;;;;;;13.93;11.47;;;;;;;16.44;67.06;101019.06;5073469;28;20184;-63
2021/08/30 01:50:21;;;;;;;12.87;11.67;;;;;;;16.40;67.00;101023.28;5072616;28;20241;-61
2021/08/30 01:52:49;;;;;;;12.70;11.40;;;;;;;16.49;66.59;101035.25;5071354;28;20184;-62
2021/08/30 02:00:43;;;;;;;12.47;11.23;;;;;;;16.33;67.32;101038.28;5052676;28;20167;-61
2021/08/30 02:03:26;;;;;;;13.33;12.03;;;;;;;16.31;66.98;101035.19;5052506;28;20168;-62
2021/08/30 02:05:57;;;;;;;13.90;12.50;;;;;;;16.08;66.91;101007.75;5052846;28;20614;-62
2021/08/30 02:08:25;;;;;;;13.00;11.70;;;;;;;16.26;67.23;101038.59;5052625;28;20183;-62
2021/08/30 02:10:56;;;;;;;15.17;11.37;;;;;;;16.24;67.54;101034.69;5052279;28;20681;-62
2021/08/30 02:13:27;;;;;;;13.40;12.03;;;;;;;15.94;67.54;100999.16;5052374;28;20271;-61
2021/08/30 02:15:53;;;;;;;13.40;11.97;;;;;;;16.30;67.41;101046.84;5052090;28;20210;-61
2021/08/30 02:18:24;;;;;;;12.40;11.20;;;;;;;16.14;67.92;101058.28;5061253;28;20487;-61
2021/08/30 02:21:01;;;;;;;13.77;12.47;;;;;;;15.87;67.84;101024.59;5044217;28;20307;-62
2021/08/30 02:23:31;;;;;;;13.27;11.87;;;;;;;16.10;67.99;101063.22;5052288;28;20164;-62
2021/08/30 02:26:02;;;;;;;13.50;12.20;;;;;;;16.07;67.82;101061.31;5052143;28;20214;-62
2021/08/30 02:28:28;;;;;;;13.33;11.87;;;;;;;16.06;67.87;101056.97;5052327;28;20206;-62
2021/08/30 02:30:54;;;;;;;13.60;11.97;;;;;;;15.75;68.05;101025.47;5051896;28;20192;-62
2021/08/30 02:33:21;;;;;;;13.33;11.70;;;;;;;16.04;67.81;101056.66;5051695;28;20179;-62
2021/08/30 02:35:47;;;;;;;13.20;11.90;;;;;;;16.09;67.54;101068.00;5052094;28;20188;-62
2021/08/30 02:38:15;;;;;;;13.57;12.27;;;;;;;16.09;67.71;101068.00;5050968;28;20183;-62
2021/08/30 02:40:41;;;;;;;13.87;12.43;;;;;;;16.09;67.60;101067.25;5051089;28;20240;-62
2021/08/30 02:43:07;;;;;;;13.03;11.60;;;;;;;16.12;67.45;101061.53;5051327;28;20550;-62
2021/08/30 02:45:33;;;;;;;12.87;11.60;;;;;;;16.25;67.27;101064.97;5051455;28;20673;-62
2021/08/30 02:48:02;;;;;;;12.63;11.37;;;;;;;16.29;66.86;101079.59;5052020;28;20172;-62
2021/08/30 02:50:29;;;;;;;14.53;12.23;;;;;;;16.28;66.82;101071.66;5051730;28;20192;-62
2021/08/30 02:52:57;;;;;;;13.17;11.87;;;;;;;16.22;67.03;101068.72;5051074;28;20191;-62
2021/08/30 02:55:23;;;;;;;16.43;11.87;;;;;;;16.28;66.79;101066.84;5051690;28;20183;-62
2021/08/30 02:57:49;;;;;;;13.57;12.13;;;;;;;16.26;66.65;101063.75;5043429;28;20239;-62
2021/08/30 03:00:16;;;;;;;14.53;12.27;;;;;;;16.12;66.91;101064.31;5051985;28;20680;-62
2021/08/30 03:02:43;;;;;;;13.50;12.13;;;;;;;15.94;67.29;101063.44;5051388;28;20184;-61
2021/08/30 03:05:11;;;;;;;13.80;12.40;;;;;;;15.64;67.45;101023.09;5051269;28;20175;-62
2021/08/30 03:07:37;;;;;;;14.07;12.00;;;;;;;15.93;67.27;101068.25;5051585;28;20217;-62
2021/08/30 03:10:04;;;;;;;13.47;11.77;;;;;;;15.83;67.67;101060.28;5051368;28;20204;-61
2021/08/30 03:12:41;;;;;;;13.90;11.67;;;;;;;15.61;68.05;101054.72;5051205;28;20191;-62
2021/08/30 03:15:11;;;;;;;12.93;11.57;;;;;;;15.72;68.45;101073.91;5024464;28;20559;-62
2021/08/30 03:17:39;;;;;;;13.47;12.07;;;;;;;14.78;68.04;100927.38;5037384;28;20489;-61
2021/08/30 03:20:06;;;;;;;13.23;11.83;;;;;;;15.72;68.21;101082.28;5066718;28;20196;-62
2021/08/30 03:22:34;;;;;;;13.27;11.83;;;;;;;15.77;68.18;101090.06;5051064;28;20180;-61
2021/08/30 03:25:02;;;;;;;13.50;12.20;;;;;;;15.79;67.61;101088.34;5050635;28;20186;-62
2021/08/30 03:27:28;;;;;;;12.73;11.43;;;;;;;15.76;67.75;101089.28;5051425;28;20184;-61
2021/08/30 03:29:55;;;;;;;12.90;11.40;;;;;;;15.79;67.63;101096.72;5066438;28;20263;-62
2021/08/30 03:32:21;;;;;;;12.60;11.30;;;;;;;15.79;67.97;101102.31;5044486;28;20497;-62
2021/08/30 03:34:49;;;;;;;13.30;11.70;;;;;;;15.59;67.59;101053.63;5049090;28;20214;-62
2021/08/30 03:37:15;;;;;;;12.60;11.37;;;;;;;15.90;67.52;101104.72;5051166;28;20180;-61
2021/08/30 03:39:42;;;;;;;12.57;11.37;;;;;;;15.91;67.19;101097.91;5051089;28;20279;-62
2021/08/30 03:42:08;;;;;;;12.73;11.43;;;;;;;15.96;67.12;101108.50;5050818;28;20199;-62
2021/08/30 03:44:36;;;;;;;13.23;11.43;;;;;;;15.90;67.35;101110.31;5041641;28;20173;-61
2021/08/30 03:47:02;;;;;;;12.73;11.47;;;;;;;15.59;67.15;101068.38;5049590;28;20565;-62
2021/08/30 03:49:29;;;;;;;12.90;11.60;;;;;;;15.87;66.66;101108.44;5050978;28;20208;-62
2021/08/30 03:51:58;;;;;;;12.80;11.50;;;;;;;15.78;67.07;101100.00;5048740;28;20275;-62
2021/08/30 03:54:24;;;;;;;14.07;12.57;;;;;;;15.77;67.44;101126.41;5049984;28;20564;-62
2021/08/30 03:56:51;;;;;;;13.13;11.53;;;;;;;15.83;67.50;101128.13;5042602;28;20231;-62
2021/08/30 03:59:18;;;;;;;12.80;11.50;;;;;;;15.81;67.50;101136.19;5050799;28;20248;-62
2021/08/30 04:01:46;;;;;;;13.77;12.47;;;;;;;15.35;67.15;101081.22;5061139;28;20622;-62
2021/08/30 04:04:17;;;;;;;13.63;11.67;;;;;;;15.34;67.42;101067.72;5038677;28;20192;-62
2021/08/30 04:06:44;;;;;;;13.37;11.87;;;;;;;15.68;67.40;101131.91;5030543;28;20248;-62
2021/08/30 04:09:14;;;;;;;13.07;11.70;;;;;;;15.34;67.59;101065.72;5043878;28;20197;-62
2021/08/30 04:11:40;;;;;;;13.67;11.73;;;;;;;15.82;67.34;101137.75;5050438;28;20188;-62
2021/08/30 04:14:06;;;;;;;16.53;12.40;;;;;;;15.80;66.74;101133.84;5049621;28;20190;-62
2021/08/30 04:16:31;;;;;;;15.40;11.97;;;;;;;15.67;66.99;101141.53;5050273;28;20259;-62
2021/08/30 04:18:57;;;;;;;14.90;12.17;;;;;;;15.41;68.21;101148.44;5046215;28;20179;-62
2021/08/30 04:21:23;;;;;;;13.27;11.70;;;;;;;15.07;68.81;101134.47;5042081;28;20691;-62
2021/08/30 04:23:48;;;;;;;13.60;12.27;;;;;;;14.77;69.58;101101.59;5048646;28;20188;-61
2021/08/30 04:26:14;;;;;;;13.87;12.43;;;;;;;15.00;70.00;101154.22;5050176;28;20218;-61
2021/08/30 04:28:39;;;;;;;13.90;12.50;;;;;;;15.00;69.32;101121.53;5050378;28;20193;-62
2021/08/30 04:31:04;;;;;;;13.60;11.53;;;;;;;15.27;69.48;101134.97;5049957;28;20184;-61
2021/08/30 04:33:30;;;;;;;12.40;11.10;;;;;;;15.41;68.52;101149.22;5041278;28;20183;-60
2021/08/30 04:35:55;;;;;;;13.27;11.13;;;;;;;15.52;67.93;101151.66;5046005;28;20657;-60
2021/08/30 04:38:21;;;;;;;13.90;11.33;;;;;;;15.60;67.88;101164.13;5049241;28;20214;-60
2021/08/30 04:40:46;;;;;;;13.93;11.50;;;;;;;15.72;67.54;101158.47;5049563;28;20334;-60
2021/08/30 04:43:13;;;;;;;12.50;11.20;;;;;;;15.44;66.95;101112.03;5049074;28;20187;-60
2021/08/30 04:45:38;;;;;;;13.00;10.60;;;;;;;15.82;66.91;101162.13;5040960;28;20624;-60
2021/08/30 04:48:07;;;;;;;12.60;10.73;;;;;;;15.81;67.52;101163.34;5049285;28;20178;-61
2021/08/30 04:50:33;;;;;;;12.27;11.07;;;;;;;15.92;67.00;101169.31;5049392;28;20205;-59
2021/08/30 04:52:58;;;;;;;12.27;10.97;;;;;;;15.63;66.66;101116.50;5048211;28;20557;-61
2021/08/30 04:55:24;;;;;;;12.83;11.40;;;;;;;15.85;66.58;101150.84;5064951;28;20189;-60
2021/08/30 04:57:49;;;;;;;13.50;11.27;;;;;;;16.07;66.66;101170.38;5010570;28;20347;-60
2021/08/30 05:00:15;;;;;;;11.97;10.77;;;;;;;15.68;66.26;101085.19;5041828;28;20277;-60
2021/08/30 05:02:40;;;;;;;12.47;11.20;;;;;;;16.24;65.94;101171.72;5040276;28;20190;-60
2021/08/30 05:05:07;;;;;;;11.70;10.50;;;;;;;16.22;65.89;101174.97;5048410;28;20196;-59
2021/08/30 05:07:32;;;;;;;13.93;12.50;;;;;;;16.28;65.79;101172.34;5050586;28;20183;-60
2021/08/30 05:09:58;;;;;;;5.77;5.17;;;;;;;19.16;64.89;101177.16;5052553;28;20211;-75
2021/08/30 05:12:26;;;;;;;9.50;7.07;;;;;;;19.86;58.02;101118.03;5044700;28;20192;-75
2021/08/30 05:14:55;;;;;;;12.73;8.00;;;;;;;21.50;52.97;101169.72;5050100;28;20196;-75
2021/08/30 05:17:21;;;;;;;10.87;8.33;;;;;;;21.38;51.97;101192.63;5045458;28;20610;-75
2021/08/30 05:19:46;;;;;;;12.20;8.00;;;;;;;20.98;51.92;101119.34;5050142;28;20734;-75
2021/08/30 05:22:13;;;;;;;9.30;7.40;;;;;;;21.59;50.56;101177.28;5049619;28;20191;-65
2021/08/30 05:24:40;;;;;;;11.97;7.93;;;;;;;21.39;53.60;101174.47;5049078;28;20646;-63
2021/08/30 05:27:05;;;;;;;8.90;7.13;;;;;;;21.64;51.06;101180.16;5033140;28;20200;-63
2021/08/30 05:29:31;;;;;;;8.63;7.10;;;;;;;21.17;52.24;101138.31;5047823;28;20212;-64
2021/08/30 05:31:56;;;;;;;7.37;6.67;;;;;;;20.66;50.11;101180.31;5045764;28;20188;-66
2021/08/30 05:34:22;;;;;;;7.70;6.90;;;;;;;20.18;52.40;101186.66;5046923;28;20258;-67
2021/08/30 05:36:47;;;;;;;7.40;6.40;;;;;;;19.59;53.31;101185.00;5049172;28;20192;-66
2021/08/30 05:39:13;;;;;;;7.33;6.63;;;;;;;19.51;53.68;101186.63;5050683;28;20187;-64
2021/08/30 05:41:38;;;;;;;8.23;6.97;;;;;;;19.40;54.83;101184.34;5050787;28;20176;-60
2021/08/30 05:44:04;;;;;;;7.40;6.47;;;;;;;19.45;55.23;101183.69;5048814;28;20560;-60
2021/08/30 05:46:30;;;;;;;9.07;7.07;;;;;;;19.29;55.14;101150.38;5050449;28;21124;-60
2021/08/30 05:48:55;;;;;;;7.60;6.17;;;;;;;20.20;53.73;101187.72;5056437;28;20212;-60
2021/08/30 05:51:21;;;;;;;6.07;5.47;;;;;;;19.47;53.00;101171.97;5043858;28;20677;-60
2021/08/30 06:03:52;;;;;;;5.30;4.80;;;;;;;19.60;51.74;101162.00;5041285;28;20756;-61
2021/08/30 06:06:17;;;;;;;5.93;5.27;;;;;;;19.65;50.91;101177.44;5018994;28;20200;-62
2021/08/30 06:15:30;;;;;;;5.00;4.50;;;;;;;19.79;49.91;101142.94;5004656;28;20275;-62
2021/08/30 06:24:40;;;;;;;5.77;3.67;;;;;;;19.01;51.02;101153.81;5009339;28;20200;-60
2021/08/30 06:27:07;;;;;;;5.70;4.10;;;;;;;19.03;51.96;101185.03;5029311;28;20199;-58
2021/08/30 06:29:33;;;;;;;5.23;4.53;;;;;;;19.00;51.35;101169.91;5038291;28;20204;-59
2021/08/30 06:31:59;;;;;;;6.27;4.20;;;;;;;18.99;51.51;101176.00;5043386;28;20193;-59
2021/08/30 06:34:26;;;;;;;5.13;4.30;;;;;;;19.51;50.61;101181.00;5042940;28;20194;-59
2021/08/30 06:36:52;;;;;;;5.60;4.33;;;;;;;19.07;51.33;101151.91;5044225;28;20279;-60
2021/08/30 06:39:18;;;;;;;5.80;4.80;;;;;;;19.15;51.04;101170.75;5038097;28;20283;-60
2021/08/30 06:41:43;;;;;;;6.53;4.60;;;;;;;19.49;50.72;101169.47;5042687;28;20191;-61
2021/08/30 06:44:09;;;;;;;4.00;3.57;;;;;;;19.90;49.68;101183.31;5040995;28;20187;-60
2021/08/30 06:46:34;;;;;;;3.83;3.20;;;;;;;19.62;49.00;101192.47;5045037;28;20462;-60
2021/08/30 06:49:00;;;;;;;3.50;3.03;;;;;;;19.25;49.45;101199.59;5032427;28;20727;-61
2021/08/30 06:51:26;;;;;;;3.47;3.17;;;;;;;18.95;49.98;101181.00;5039126;28;20180;-58
2021/08/30 06:53:52;;;;;;;5.93;3.30;;;;;;;18.24;50.93;101089.00;5041754;28;20194;-59
2021/08/30 06:56:17;;;;;;;4.10;2.90;;;;;;;18.55;51.02;101141.28;5035286;28;20192;-58
2021/08/30 06:58:43;;;;;;;3.37;2.70;;;;;;;18.84;50.82;101198.38;5040853;28;20189;-59
2021/08/30 07:01:09;;;;;;;4.17;2.70;;;;;;;18.87;49.70;101199.47;5045116;28;20188;-59
2021/08/30 07:03:34;;;;;;;3.40;2.70;;;;;;;18.54;50.14;101150.97;5046911;28;20238;-59
2021/08/30 07:06:00;;;;;;;2.80;2.50;;;;;;;18.65;49.86;101166.03;5045065;28;20536;-59
2021/08/30 07:08:25;;;;;;;4.93;2.90;;;;;;;18.66;50.26;101150.75;5035193;28;20695;-60
2021/08/30 07:10:51;;;;;;;4.27;3.10;;;;;;;18.95;50.53;101209.09;5040810;28;20259;-60
2021/08/30 07:13:16;;;;;;;4.23;3.20;;;;;;;19.00;50.71;101197.22;5045695;28;20178;-58
2021/08/30 07:15:42;;;;;;;3.17;2.87;;;;;;;19.17;50.68;101195.56;5043551;28;20589;-59
2021/08/30 07:18:07;;;;;;;7.57;3.20;;;;;;;19.08;50.44;101187.97;5042062;28;20224;-60
2021/08/30 07:20:33;;;;;;;3.37;2.80;;;;;;;19.25;50.21;101194.75;5041282;28;20189;-59
2021/08/30 07:23:00;;;;;;;4.47;2.97;;;;;;;19.33;50.52;101198.75;5045536;28;20275;-60
2021/08/30 07:25:25;;;;;;;3.90;2.87;;;;;;;19.41;48.73;101204.78;5035725;28;20180;-60
2021/08/30 07:27:51;;;;;;;3.43;2.77;;;;;;;18.79;48.77;101108.41;5045242;28;20211;-59
2021/08/30 07:30:16;;;;;;;4.10;3.07;;;;;;;19.39;49.50;101202.47;5042195;28;20546;-61
2021/08/30 07:32:42;;;;;;;4.00;2.67;;;;;;;19.48;48.94;101198.81;5041525;28;20585;-60
2021/08/30 07:35:08;;;;;;;4.13;3.10;;;;;;;19.53;49.13;101201.75;5046032;28;20176;-59
2021/08/30 07:37:34;;;;;;;3.00;2.70;;;;;;;19.60;49.12;101206.22;5043497;28;20186;-59
2021/08/30 07:39:59;;;;;;;3.37;2.87;;;;;;;19.73;48.88;101206.72;5042153;28;20200;-59
2021/08/30 07:42:24;;;;;;;2.80;2.50;;;;;;;19.81;48.70;101211.50;5039943;28;20266;-59
2021/08/30 07:44:50;;;;;;;3.17;2.80;;;;;;;19.88;48.18;101219.59;5037693;28;20240;-59
2021/08/30 07:47:15;;;;;;;3.23;2.80;;;;;;;19.73;48.04;101182.22;5040216;28;20250;-61
2021/08/30 07:49:41;;;;;;;3.77;3.00;;;;;;;19.92;48.36;101208.13;5038761;28;20344;-59
2021/08/30 07:52:06;;;;;;;3.83;2.67;;;;;;;20.08;48.72;101210.53;5036899;28;20688;-59
2021/08/30 07:54:32;;;;;;;3.13;2.70;;;;;;;20.23;48.52;101212.09;5041905;28;20188;-59
2021/08/30 07:56:57;;;;;;;2.57;2.10;;;;;;;20.27;46.79;101209.09;5031665;28;20286;-61
2021/08/30 07:59:23;;;;;;;4.47;2.40;;;;;;;20.18;46.60;101209.16;5038253;28;20238;-62
2021/08/30 08:01:48;;;;;;;3.80;2.63;;;;;;;20.20;47.26;101203.81;5041309;28;20185;-61
2021/08/30 08:04:14;;;;;;;3.00;2.70;;;;;;;20.30;47.21;101214.53;5047225;28;20387;-60
2021/08/30 08:06:39;;;;;;;3.67;2.30;;;;;;;20.30;46.26;101220.16;5036791;28;20191;-60
2021/08/30 08:09:05;;;;;;;2.87;2.40;;;;;;;20.47;47.24;101217.63;5045739;28;20688;-59
2021/08/30 08:11:31;;;;;;;3.20;2.23;;;;;;;20.49;47.15;101215.88;5036196;28;20192;-58
2021/08/30 08:13:57;;;;;;;3.07;2.37;;;;;;;20.57;46.82;101216.28;5032355;28;20267;-59
2021/08/30 08:16:22;;;;;;;3.93;2.53;;;;;;;20.33;46.06;101181.81;5042899;28;20235;-61
2021/08/30 08:18:48;;;;;;;2.73;2.40;;;;;;;20.65;45.67;101223.03;5033165;28;20181;-60
2021/08/30 08:21:13;;;;;;;2.90;2.60;;;;;;;20.75;45.50;101218.84;5047326;28;20906;-60
2021/08/30 08:23:39;;;;;;;3.33;2.80;;;;;;;20.83;45.77;101217.97;5039136;28;20184;-60
2021/08/30 08:26:04;;;;;;;5.30;2.60;;;;;;;20.91;45.93;101219.16;5036399;28;20192;-58
2021/08/30 08:28:30;;;;;;;3.33;3.00;;;;;;;21.00;45.86;101227.50;5037692;28;20196;-58
2021/08/30 08:30:56;;;;;;;3.07;2.50;;;;;;;21.08;45.37;101222.97;5041627;28;20240;-58
2021/08/30 08:33:21;;;;;;;5.47;2.50;;;;;;;21.20;45.00;101218.28;5040672;28;20691;-60
2021/08/30 08:35:47;;;;;;;3.87;2.50;;;;;;;21.19;45.36;101206.22;5045519;28;20493;-60
2021/08/30 08:38:12;;;;;;;4.10;2.70;;;;;;;21.33;44.72;101233.59;5041996;28;20188;-58
2021/08/30 08:40:39;;;;;;;3.17;2.87;;;;;;;21.29;44.40;101201.25;5043180;28;20564;-59
2021/08/30 08:43:16;;;;;;;4.50;2.50;;;;;;;21.04;44.56;101156.84;5046248;28;20195;-59
2021/08/30 08:45:43;;;;;;;3.93;2.40;;;;;;;21.51;44.01;101210.78;5038907;28;20183;-62
2021/08/30 08:48:10;;;;;;;3.77;2.60;;;;;;;21.59;44.57;101219.59;5032014;28;20197;-59
2021/08/30 08:50:36;;;;;;;2.80;2.47;;;;;;;21.27;43.36;101161.47;5046780;28;20199;-59
2021/08/30 08:53:04;;;;;;;5.50;2.73;;;;;;;21.52;44.61;101194.63;5037994;28;20314;-66
2021/08/30 08:55:34;;;;;;;4.63;2.63;;;;;;;21.75;43.96;101219.06;5037361;28;20590;-66
2021/08/30 08:58:09;;;;;;;3.03;2.47;;;;;;;22.07;42.62;101220.69;5041197;28;20227;-60
2021/08/30 09:00:36;;;;;;;3.37;2.67;;;;;;;21.97;43.76;101211.63;5042139;28;20161;-65
2021/08/30 09:03:01;;;;;;;3.87;2.50;;;;;;;21.86;42.54;101185.31;5045863;28;20211;-64
2021/08/30 09:05:28;;;;;;;3.67;2.63;;;;;;;22.00;43.33;101199.31;5034426;28;20184;-60
2021/08/30 09:10:45;;;;;;;2.97;2.67;;;;;;;21.90;43.43;101178.16;5034376;28;20262;-65
2021/08/30 09:13:10;;;;;;;4.00;2.90;;;;;;;22.00;42.96;101198.56;5044909;28;20180;-70
2021/08/30 09:15:41;;;;;;;2.57;2.37;;;;;;;22.01;43.36;101202.94;5035358;28;20242;-64
2021/08/30 09:18:10;;;;;;;2.80;2.23;;;;;;;22.14;42.46;101203.31;5045329;28;20191;-65
2021/08/30 09:20:36;;;;;;;3.47;2.47;;;;;;;22.35;42.07;101194.28;5037538;28;20295;-64
2021/08/30 09:23:28;;;;;;;3.10;2.40;;;;;;;22.57;42.20;101202.97;5040900;28;20260;-64
2021/08/30 09:25:59;;;;;;;2.40;2.20;;;;;;;22.45;40.75;101197.72;5034038;28;20201;-62
2021/08/30 09:28:38;;;;;;;3.40;2.23;;;;;;;22.28;40.17;101194.72;5036496;28;20236;-62
2021/08/30 09:31:03;;;;;;;3.13;2.40;;;;;;;21.86;40.87;101163.50;5025606;28;20202;-63
2021/08/30 09:33:29;;;;;;;2.40;2.10;;;;;;;21.70;40.26;101155.63;5045611;28;20267;-63
2021/08/30 09:36:01;;;;;;;3.37;2.60;;;;;;;22.35;40.48;101199.13;5046629;28;20554;-62
2021/08/30 09:38:35;;;;;;;2.70;2.43;;;;;;;22.43;40.31;101203.84;5045966;28;20196;-64
2021/08/30 09:41:05;;;;;;;3.50;2.37;;;;;;;22.35;40.02;101173.72;5045994;28;20181;-62
2021/08/30 09:43:30;;;;;;;3.37;2.50;;;;;;;22.60;40.36;101198.34;5046294;28;20262;-66
2021/08/30 09:46:00;;;;;;;3.40;2.50;;;;;;;22.84;40.21;101195.97;5045916;28;20271;-64
2021/08/30 09:48:27;;;;;;;5.73;2.77;;;;;;;23.00;39.71;101189.66;5046586;28;20188;-64
2021/08/30 09:51:00;;;;;;;3.30;2.50;;;;;;;22.99;39.54;101183.25;5048377;28;20408;-64
2021/08/30 09:53:26;;;;;;;3.70;2.70;;;;;;;23.02;40.09;101190.72;5048979;28;20179;-64
2021/08/30 09:55:51;;;;;;;3.13;2.70;;;;;;;22.98;39.30;101141.34;5049727;28;20188;-63
2021/08/30 09:58:18;;;;;;;2.90;2.50;;;;;;;23.26;38.11;101190.34;5048432;28;20186;-64
2021/08/30 10:00:46;;;;;;;6.83;2.80;;;;;;;23.29;38.66;101184.47;5044326;28;20422;-64
2021/08/30 10:03:12;;;;;;;3.10;2.40;;;;;;;23.40;37.71;101178.88;5046770;28;20537;-62
2021/08/30 10:05:38;;;;;;;3.27;2.47;;;;;;;23.55;38.00;101187.16;5049164;28;20203;-64
2021/08/30 10:08:04;;;;;;;3.30;3.00;;;;;;;23.35;38.65;101145.69;5048889;28;20195;-63
2021/08/30 10:10:29;;;;;;;2.60;2.40;;;;;;;23.38;38.20;101175.75;5049712;28;20208;-65
2021/08/30 10:12:56;;;;;;;3.20;2.70;;;;;;;23.27;39.18;101136.13;5046318;28;20263;-66
2021/08/30 10:15:25;;;;;;;4.23;2.83;;;;;;;23.58;38.42;101158.63;5046088;28;20299;-65
2021/08/30 10:17:51;;;;;;;4.10;2.67;;;;;;;23.71;37.10;101175.91;5048235;28;20658;-63
2021/08/30 10:20:25;;;;;;;2.83;2.53;;;;;;;23.71;37.75;101173.06;5048967;28;20191;-63
2021/08/30 10:23:04;;;;;;;3.10;2.60;;;;;;;23.70;37.68;101165.09;5046011;28;20180;-65
2021/08/30 10:25:31;;;;;;;3.50;2.23;;;;;;;23.40;37.73;101124.34;5044812;28;20184;-66
2021/08/30 10:28:03;;;;;;;3.30;2.63;;;;;;;23.81;37.69;101154.59;5048756;28;20196;-65
2021/08/30 10:30:29;;;;;;;2.30;2.10;;;;;;;23.33;37.31;101086.00;5047830;28;20585;-67
2021/08/30 10:32:58;;;;;;;3.23;2.50;;;;;;;24.10;37.46;101156.22;5049133;28;20176;-68
2021/08/30 10:35:28;;;;;;;5.63;2.27;;;;;;;24.06;36.46;101169.84;5028918;28;20195;-68
2021/08/30 10:38:03;;;;;;;3.57;2.20;;;;;;;23.62;35.86;101116.72;5041427;28;20587;-69
2021/08/30 10:40:31;;;;;;;2.77;2.23;;;;;;;23.97;37.61;101153.88;5047485;28;20184;-67
2021/08/30 10:43:08;;;;;;;2.43;2.23;;;;;;;23.74;36.61;101137.31;5042827;28;20188;-66
2021/08/30 10:45:44;;;;;;;2.83;2.40;;;;;;;24.18;36.99;101154.41;5040604;28;20582;-69
2021/08/30 10:48:15;;;;;;;8.77;2.27;;;;;;;24.28;36.09;101158.53;5040385;28;20187;-67
2021/08/30 10:50:47;;;;;;;3.50;2.30;;;;;;;24.46;37.02;101155.19;5031130;28;20298;-67
2021/08/30 10:53:18;;;;;;;4.63;2.40;;;;;;;24.69;35.82;101157.53;5035455;28;20180;-68
2021/08/30 10:55:46;;;;;;;3.37;2.30;;;;;;;24.91;35.82;101142.50;5044162;28;20196;-68
2021/08/30 10:58:15;;;;;;;2.43;2.20;;;;;;;25.03;34.69;101156.16;5050005;28;20661;-67
2021/08/30 11:00:41;;;;;;;3.90;2.20;;;;;;;25.28;35.23;101145.81;5048510;28;20330;-69
2021/08/30 11:03:07;;;;;;;3.17;2.10;;;;;;;25.44;34.72;101162.75;5045887;28;20317;-65
2021/08/30 11:05:33;;;;;;;2.87;2.10;;;;;;;25.42;34.07;101122.00;5047773;28;20184;-67
2021/08/30 11:07:58;;;;;;;3.43;2.20;;;;;;;25.73;34.28;101142.22;5044889;28;20188;-64
2021/08/30 11:10:28;;;;;;;2.07;1.87;;;;;;;25.86;33.49;101159.44;5049388;28;20205;-69
2021/08/30 11:12:57;;;;;;;2.20;2.00;;;;;;;25.70;33.66;101153.84;5045524;28;20188;-69
2021/08/30 11:15:22;;;;;;;1.80;1.70;;;;;;;25.50;32.94;101123.78;5045311;28;20277;-69
2021/08/30 11:17:48;;;;;;;2.93;2.10;;;;;;;25.25;32.97;101102.22;5050517;28;20650;-70
2021/08/30 11:20:17;;;;;;;2.67;2.00;;;;;;;25.58;33.30;101147.47;5047375;28;20180;-70
2021/08/30 11:22:51;;;;;;;4.80;1.60;;;;;;;25.50;31.86;101163.50;5047373;28;20214;-69
2021/08/30 11:25:17;;;;;;;3.47;2.00;;;;;;;25.49;32.62;101150.59;5047449;28;20283;-70
2021/08/30 11:27:42;;;;;;;2.10;1.70;;;;;;;25.01;33.78;101102.03;5030211;28;20710;-70
2021/08/30 11:30:12;;;;;;;1.70;1.60;;;;;;;25.49;32.87;101147.75;5049280;28;20621;-70
2021/08/30 11:32:40;;;;;;;2.13;1.70;;;;;;;25.29;32.39;101128.25;5049065;28;20180;-70
2021/08/30 11:35:08;;;;;;;2.70;1.80;;;;;;;25.32;33.69;101134.94;5046324;28;20256;-70
2021/08/30 11:37:35;;;;;;;2.43;1.87;;;;;;;25.37;33.79;101137.75;5047614;28;20666;-68
2021/08/30 11:40:05;;;;;;;1.93;1.77;;;;;;;25.37;32.65;101081.00;5048360;28;20183;-65
2021/08/30 11:42:33;;;;;;;2.00;1.80;;;;;;;25.85;32.61;101138.00;5032521;28;20233;-66
2021/08/30 11:45:03;;;;;;;2.50;1.70;;;;;;;25.93;32.35;101124.81;5045794;28;20622;-68
2021/08/30 11:47:30;;;;;;;3.13;1.70;;;;;;;26.04;32.18;101126.81;5047838;28;20751;-66
2021/08/30 11:49:58;;;;;;;3.20;1.97;;;;;;;26.07;32.87;101131.44;5047485;28;20200;-66
2021/08/30 11:52:26;;;;;;;2.73;2.00;;;;;;;25.80;33.40;101110.41;5042716;28;20361;-66